sensor_id;sensor_type;location;lat;lon;timestamp;P1;durP1;ratioP1;P2;durP2;ratioP2
29414;SDS011;20303;48.302;11.914;2022-11-20T00:09:53;19.50;;;10.18;;
29414;SDS011;20303;48.302;11.914;2022-11-20T00:19:54;16.95;;;9.73;;
29414;SDS011;20303;48.302;11.914;2022-11-20T00:29:55;16.25;;;9.68;;
29414;SDS011;20303;48.302;11.914;2022-11-20T00:39:56;16.30;;;9.43;;
29414;SDS011;20303;48.302;11.914;2022-11-20T00:49:57;14.23;;;9.15;;
29414;SDS011;20303;48.302;11.914;2022-11-20T00:59:58;13.50;;;8.40;;
29414;SDS011;20303;48.302;11.914;2022-11-20T01:09:59;15.95;;;8.85;;
29414;SDS011;20303;48.302;11.914;2022-11-20T01:20:00;16.58;;;8.73;;
29414;SDS011;20303;48.302;11.914;2022-11-20T01:30:01;13.52;;;8.43;;
29414;SDS011;20303;48.302;11.914;2022-11-20T01:40:02;13.98;;;7.90;;
29414;SDS011;20303;48.302;11.914;2022-11-20T01:50:06;12.35;;;7.85;;
29414;SDS011;20303;48.302;11.914;2022-11-20T02:00:19;13.40;;;7.57;;
29414;SDS011;20303;48.302;11.914;2022-11-20T02:10:20;11.80;;;7.15;;
29414;SDS011;20303;48.302;11.914;2022-11-20T02:20:21;10.82;;;6.63;;
29414;SDS011;20303;48.302;11.914;2022-11-20T02:30:22;11.15;;;6.82;;
29414;SDS011;20303;48.302;11.914;2022-11-20T02:40:24;10.05;;;6.25;;
29414;SDS011;20303;48.302;11.914;2022-11-20T02:50:25;11.23;;;6.13;;
29414;SDS011;20303;48.302;11.914;2022-11-20T03:00:26;40.65;;;7.57;;
29414;SDS011;20303;48.302;11.914;2022-11-20T03:10:27;35.88;;;8.18;;
29414;SDS011;20303;48.302;11.914;2022-11-20T03:20:28;54.80;;;9.57;;
29414;SDS011;20303;48.302;11.914;2022-11-20T03:30:29;42.63;;;8.73;;
29414;SDS011;20303;48.302;11.914;2022-11-20T03:40:30;38.80;;;7.95;;
29414;SDS011;20303;48.302;11.914;2022-11-20T03:50:31;33.35;;;7.88;;
29414;SDS011;20303;48.302;11.914;2022-11-20T04:00:32;30.48;;;7.35;;
29414;SDS011;20303;48.302;11.914;2022-11-20T04:10:33;23.70;;;6.32;;
29414;SDS011;20303;48.302;11.914;2022-11-20T04:20:35;18.83;;;6.22;;
29414;SDS011;20303;48.302;11.914;2022-11-20T04:30:36;18.83;;;6.32;;
29414;SDS011;20303;48.302;11.914;2022-11-20T04:40:37;16.42;;;6.15;;
29414;SDS011;20303;48.302;11.914;2022-11-20T04:50:39;17.08;;;5.82;;
29414;SDS011;20303;48.302;11.914;2022-11-20T05:00:40;17.10;;;6.05;;
29414;SDS011;20303;48.302;11.914;2022-11-20T05:10:41;13.40;;;5.25;;
29414;SDS011;20303;48.302;11.914;2022-11-20T05:20:42;13.60;;;4.97;;
29414;SDS011;20303;48.302;11.914;2022-11-20T05:30:43;10.23;;;4.57;;
29414;SDS011;20303;48.302;11.914;2022-11-20T05:40:44;16.60;;;4.85;;
29414;SDS011;20303;48.302;11.914;2022-11-20T05:50:45;11.60;;;4.57;;
29414;SDS011;20303;48.302;11.914;2022-11-20T06:00:47;17.88;;;5.38;;
29414;SDS011;20303;48.302;11.914;2022-11-20T06:10:48;16.48;;;5.05;;
29414;SDS011;20303;48.302;11.914;2022-11-20T06:20:49;18.42;;;4.75;;
29414;SDS011;20303;48.302;11.914;2022-11-20T06:30:50;17.17;;;4.93;;
29414;SDS011;20303;48.302;11.914;2022-11-20T06:40:51;16.27;;;4.30;;
29414;SDS011;20303;48.302;11.914;2022-11-20T06:50:53;14.45;;;4.28;;
29414;SDS011;20303;48.302;11.914;2022-11-20T07:00:57;14.32;;;4.60;;
29414;SDS011;20303;48.302;11.914;2022-11-20T07:11:00;18.35;;;4.72;;
29414;SDS011;20303;48.302;11.914;2022-11-20T07:21:02;14.20;;;4.20;;
29414;SDS011;20303;48.302;11.914;2022-11-20T07:31:05;27.27;;;5.07;;
29414;SDS011;20303;48.302;11.914;2022-11-20T07:41:07;25.73;;;4.93;;
29414;SDS011;20303;48.302;11.914;2022-11-20T07:51:08;25.58;;;4.90;;
29414;SDS011;20303;48.302;11.914;2022-11-20T08:01:09;22.75;;;4.90;;
29414;SDS011;20303;48.302;11.914;2022-11-20T08:11:10;20.83;;;4.22;;
29414;SDS011;20303;48.302;11.914;2022-11-20T08:21:30;17.55;;;4.60;;
29414;SDS011;20303;48.302;11.914;2022-11-20T08:31:31;14.93;;;3.70;;
29414;SDS011;20303;48.302;11.914;2022-11-20T08:41:33;13.68;;;3.75;;
29414;SDS011;20303;48.302;11.914;2022-11-20T08:51:35;11.63;;;3.50;;
29414;SDS011;20303;48.302;11.914;2022-11-20T09:01:36;31.60;;;5.22;;
29414;SDS011;20303;48.302;11.914;2022-11-20T09:11:38;38.47;;;5.97;;
29414;SDS011;20303;48.302;11.914;2022-11-20T09:21:40;46.00;;;5.55;;
29414;SDS011;20303;48.302;11.914;2022-11-20T09:31:41;42.90;;;6.05;;
29414;SDS011;20303;48.302;11.914;2022-11-20T10:02:48;66.45;;;7.93;;
29414;SDS011;20303;48.302;11.914;2022-11-20T10:23:18;78.07;;;9.73;;
29414;SDS011;20303;48.302;11.914;2022-11-20T10:33:41;156.23;;;13.23;;
29414;SDS011;20303;48.302;11.914;2022-11-20T10:43:43;69.78;;;9.02;;
29414;SDS011;20303;48.302;11.914;2022-11-20T11:03:55;31.25;;;4.93;;
29414;SDS011;20303;48.302;11.914;2022-11-20T11:14:06;29.58;;;5.68;;
29414;SDS011;20303;48.302;11.914;2022-11-20T11:24:15;30.48;;;5.63;;
29414;SDS011;20303;48.302;11.914;2022-11-20T11:34:21;20.17;;;5.28;;
29414;SDS011;20303;48.302;11.914;2022-11-20T11:44:32;23.60;;;5.03;;
29414;SDS011;20303;48.302;11.914;2022-11-20T11:54:53;25.67;;;6.13;;
29414;SDS011;20303;48.302;11.914;2022-11-20T12:04:57;24.95;;;6.20;;
29414;SDS011;20303;48.302;11.914;2022-11-20T12:15:02;18.92;;;5.45;;
29414;SDS011;20303;48.302;11.914;2022-11-20T12:25:11;18.83;;;6.03;;
29414;SDS011;20303;48.302;11.914;2022-11-20T12:45:54;19.48;;;5.38;;
29414;SDS011;20303;48.302;11.914;2022-11-20T13:06:45;17.15;;;5.07;;
29414;SDS011;20303;48.302;11.914;2022-11-20T13:16:54;14.45;;;4.57;;
29414;SDS011;20303;48.302;11.914;2022-11-20T13:27:23;15.77;;;5.00;;
29414;SDS011;20303;48.302;11.914;2022-11-20T13:37:29;13.55;;;4.20;;
29414;SDS011;20303;48.302;11.914;2022-11-20T13:47:33;14.35;;;4.07;;
29414;SDS011;20303;48.302;11.914;2022-11-20T14:07:55;18.08;;;4.57;;
29414;SDS011;20303;48.302;11.914;2022-11-20T14:17:57;16.15;;;3.85;;
29414;SDS011;20303;48.302;11.914;2022-11-20T14:27:59;14.82;;;4.20;;
29414;SDS011;20303;48.302;11.914;2022-11-20T14:38:01;15.35;;;4.10;;
29414;SDS011;20303;48.302;11.914;2022-11-20T14:48:03;11.25;;;3.50;;
29414;SDS011;20303;48.302;11.914;2022-11-20T14:58:26;11.65;;;3.65;;
29414;SDS011;20303;48.302;11.914;2022-11-20T15:08:27;13.13;;;3.22;;
29414;SDS011;20303;48.302;11.914;2022-11-20T15:28:39;12.18;;;3.22;;
29414;SDS011;20303;48.302;11.914;2022-11-20T15:38:41;9.43;;;2.97;;
29414;SDS011;20303;48.302;11.914;2022-11-20T15:48:43;8.00;;;2.95;;
29414;SDS011;20303;48.302;11.914;2022-11-20T15:58:45;15.30;;;3.60;;
29414;SDS011;20303;48.302;11.914;2022-11-20T16:08:46;10.57;;;3.50;;
29414;SDS011;20303;48.302;11.914;2022-11-20T16:18:47;13.73;;;5.30;;
29414;SDS011;20303;48.302;11.914;2022-11-20T16:28:48;16.40;;;6.60;;
29414;SDS011;20303;48.302;11.914;2022-11-20T16:38:53;22.42;;;8.23;;
29414;SDS011;20303;48.302;11.914;2022-11-20T16:48:58;17.00;;;7.55;;
29414;SDS011;20303;48.302;11.914;2022-11-20T16:59:02;17.05;;;7.60;;
29414;SDS011;20303;48.302;11.914;2022-11-20T17:09:03;22.60;;;8.30;;
29414;SDS011;20303;48.302;11.914;2022-11-20T17:19:04;18.00;;;7.78;;
29414;SDS011;20303;48.302;11.914;2022-11-20T17:29:06;18.30;;;7.60;;
29414;SDS011;20303;48.302;11.914;2022-11-20T17:39:11;15.88;;;7.30;;
29414;SDS011;20303;48.302;11.914;2022-11-20T17:49:13;19.50;;;7.32;;
29414;SDS011;20303;48.302;11.914;2022-11-20T17:59:14;16.33;;;6.82;;
29414;SDS011;20303;48.302;11.914;2022-11-20T18:09:17;15.68;;;7.05;;
29414;SDS011;20303;48.302;11.914;2022-11-20T18:19:20;13.45;;;7.10;;
29414;SDS011;20303;48.302;11.914;2022-11-20T18:29:23;13.32;;;6.47;;
29414;SDS011;20303;48.302;11.914;2022-11-20T18:39:25;12.10;;;6.43;;
29414;SDS011;20303;48.302;11.914;2022-11-20T18:49:26;12.02;;;6.15;;
29414;SDS011;20303;48.302;11.914;2022-11-20T18:59:27;11.15;;;6.10;;
29414;SDS011;20303;48.302;11.914;2022-11-20T19:19:35;9.32;;;5.72;;
29414;SDS011;20303;48.302;11.914;2022-11-20T19:29:36;9.13;;;5.47;;
29414;SDS011;20303;48.302;11.914;2022-11-20T19:39:37;9.77;;;5.53;;
29414;SDS011;20303;48.302;11.914;2022-11-20T19:49:38;9.73;;;5.28;;
29414;SDS011;20303;48.302;11.914;2022-11-20T19:59:40;10.63;;;4.57;;
29414;SDS011;20303;48.302;11.914;2022-11-20T20:09:41;11.85;;;4.68;;
29414;SDS011;20303;48.302;11.914;2022-11-20T20:19:43;10.50;;;5.10;;
29414;SDS011;20303;48.302;11.914;2022-11-20T20:29:44;7.28;;;4.88;;
29414;SDS011;20303;48.302;11.914;2022-11-20T20:39:45;8.18;;;4.45;;
29414;SDS011;20303;48.302;11.914;2022-11-20T20:49:46;9.20;;;4.78;;
29414;SDS011;20303;48.302;11.914;2022-11-20T21:09:48;5.40;;;3.93;;
29414;SDS011;20303;48.302;11.914;2022-11-20T21:19:50;6.57;;;4.28;;
29414;SDS011;20303;48.302;11.914;2022-11-20T21:39:52;6.17;;;4.03;;
29414;SDS011;20303;48.302;11.914;2022-11-20T21:49:53;7.28;;;4.18;;
29414;SDS011;20303;48.302;11.914;2022-11-20T22:09:55;6.50;;;3.83;;
29414;SDS011;20303;48.302;11.914;2022-11-20T22:29:57;5.40;;;3.80;;
29414;SDS011;20303;48.302;11.914;2022-11-20T22:49:59;5.87;;;3.90;;
29414;SDS011;20303;48.302;11.914;2022-11-20T23:10:01;4.77;;;3.60;;
29414;SDS011;20303;48.302;11.914;2022-11-20T23:20:02;4.93;;;3.50;;
29414;SDS011;20303;48.302;11.914;2022-11-20T23:30:04;5.13;;;3.50;;
29414;SDS011;20303;48.302;11.914;2022-11-20T23:40:05;6.05;;;3.58;;
29414;SDS011;20303;48.302;11.914;2022-11-20T23:50:07;4.93;;;3.10;;
